sensor_id;sensor_type;location;lat;lon;timestamp;pressure;altitude;pressure_sealevel;temperature;humidity
26087;BME280;13851;43.434;28.338;2023-02-21T00:02:11;99883.63;;;6.21;100.00
26087;BME280;13851;43.434;28.338;2023-02-21T00:04:55;99883.78;;;6.19;100.00
26087;BME280;13851;43.434;28.338;2023-02-21T00:07:39;99899.09;;;6.20;100.00
26087;BME280;13851;43.434;28.338;2023-02-21T00:10:23;99870.34;;;6.36;100.00
26087;BME280;13851;43.434;28.338;2023-02-21T00:13:07;99868.31;;;6.38;100.00
26087;BME280;13851;43.434;28.338;2023-02-21T00:15:52;99828.69;;;6.17;100.00
26087;BME280;13851;43.434;28.338;2023-02-21T00:18:36;99852.78;;;6.48;100.00
26087;BME280;13851;43.434;28.338;2023-02-21T00:21:21;99839.38;;;6.01;100.00
26087;BME280;13851;43.434;28.338;2023-02-21T00:24:05;99522.31;;;4.22;100.00
26087;BME280;13851;43.434;28.338;2023-02-21T00:26:49;99794.03;;;5.74;100.00
26087;BME280;13851;43.434;28.338;2023-02-21T00:29:33;99832.44;;;5.89;100.00
26087;BME280;13851;43.434;28.338;2023-02-21T00:32:17;99800.50;;;5.91;100.00
26087;BME280;13851;43.434;28.338;2023-02-21T00:35:01;99833.75;;;6.30;100.00
26087;BME280;13851;43.434;28.338;2023-02-21T00:37:50;99794.63;;;6.13;100.00
26087;BME280;13851;43.434;28.338;2023-02-21T00:40:34;99821.38;;;6.36;100.00
26087;BME280;13851;43.434;28.338;2023-02-21T00:43:18;99749.38;;;6.04;100.00
26087;BME280;13851;43.434;28.338;2023-02-21T00:46:02;99830.56;;;6.35;100.00
26087;BME280;13851;43.434;28.338;2023-02-21T00:48:47;99800.22;;;6.47;100.00
26087;BME280;13851;43.434;28.338;2023-02-21T00:51:30;99541.75;;;5.08;100.00
26087;BME280;13851;43.434;28.338;2023-02-21T00:54:14;99271.22;;;3.39;100.00
26087;BME280;13851;43.434;28.338;2023-02-21T00:56:58;99737.34;;;6.33;100.00
26087;BME280;13851;43.434;28.338;2023-02-21T00:59:42;99810.84;;;6.76;100.00
26087;BME280;13851;43.434;28.338;2023-02-21T01:02:26;99770.28;;;6.47;100.00
26087;BME280;13851;43.434;28.338;2023-02-21T01:05:10;99798.94;;;6.77;100.00
26087;BME280;13851;43.434;28.338;2023-02-21T01:07:54;99451.25;;;4.81;100.00
26087;BME280;13851;43.434;28.338;2023-02-21T01:10:38;99838.44;;;6.82;100.00
26087;BME280;13851;43.434;28.338;2023-02-21T01:13:22;99803.72;;;6.84;100.00
26087;BME280;13851;43.434;28.338;2023-02-21T01:16:06;99823.06;;;6.72;100.00
26087;BME280;13851;43.434;28.338;2023-02-21T01:18:51;99795.75;;;6.90;100.00
26087;BME280;13851;43.434;28.338;2023-02-21T01:21:35;99807.19;;;6.94;100.00
26087;BME280;13851;43.434;28.338;2023-02-21T01:24:19;99501.72;;;5.28;100.00
26087;BME280;13851;43.434;28.338;2023-02-21T01:27:03;99741.19;;;6.66;100.00
26087;BME280;13851;43.434;28.338;2023-02-21T01:29:47;99763.25;;;6.89;100.00
26087;BME280;13851;43.434;28.338;2023-02-21T01:32:31;99796.03;;;6.79;100.00
26087;BME280;13851;43.434;28.338;2023-02-21T01:35:15;99745.69;;;6.83;100.00
26087;BME280;13851;43.434;28.338;2023-02-21T01:37:59;99729.00;;;6.78;100.00
26087;BME280;13851;43.434;28.338;2023-02-21T01:40:43;99384.03;;;4.75;100.00
26087;BME280;13851;43.434;28.338;2023-02-21T01:43:28;99760.91;;;6.94;100.00
26087;BME280;13851;43.434;28.338;2023-02-21T01:46:17;99696.44;;;6.68;100.00
26087;BME280;13851;43.434;28.338;2023-02-21T01:49:19;99690.03;;;6.77;100.00
26087;BME280;13851;43.434;28.338;2023-02-21T01:52:04;99803.03;;;7.08;100.00
26087;BME280;13851;43.434;28.338;2023-02-21T01:54:50;99750.31;;;7.17;100.00
26087;BME280;13851;43.434;28.338;2023-02-21T01:57:37;99731.50;;;7.06;100.00
26087;BME280;13851;43.434;28.338;2023-02-21T02:00:22;99719.00;;;6.87;100.00
26087;BME280;13851;43.434;28.338;2023-02-21T02:03:09;99734.22;;;7.06;100.00
26087;BME280;13851;43.434;28.338;2023-02-21T02:05:56;99401.34;;;5.18;100.00
26087;BME280;13851;43.434;28.338;2023-02-21T02:08:41;99552.97;;;6.18;100.00
26087;BME280;13851;43.434;28.338;2023-02-21T02:20:25;99738.28;;;7.36;100.00
26087;BME280;13851;43.434;28.338;2023-02-21T02:26:07;99714.16;;;7.57;100.00
26087;BME280;13851;43.434;28.338;2023-02-21T02:36:27;99427.38;;;6.15;100.00
26087;BME280;13851;43.434;28.338;2023-02-21T02:39:26;99697.88;;;7.73;100.00
26087;BME280;13851;43.434;28.338;2023-02-21T02:44:43;99693.41;;;7.72;100.00
26087;BME280;13851;43.434;28.338;2023-02-21T02:47:26;99694.44;;;7.88;100.00
26087;BME280;13851;43.434;28.338;2023-02-21T02:49:54;99644.88;;;7.68;100.00
26087;BME280;13851;43.434;28.338;2023-02-21T02:52:20;99591.34;;;7.42;100.00
26087;BME280;13851;43.434;28.338;2023-02-21T02:54:57;99674.66;;;7.77;100.00
26087;BME280;13851;43.434;28.338;2023-02-21T02:57:22;99743.22;;;8.07;100.00
26087;BME280;13851;43.434;28.338;2023-02-21T02:59:48;99691.41;;;8.07;100.00
26087;BME280;13851;43.434;28.338;2023-02-21T03:10:49;99675.72;;;8.09;100.00
26087;BME280;13851;43.434;28.338;2023-02-21T03:13:27;99660.22;;;8.10;100.00
26087;BME280;13851;43.434;28.338;2023-02-21T03:16:11;99712.19;;;8.08;100.00
26087;BME280;13851;43.434;28.338;2023-02-21T03:18:45;99669.22;;;8.02;100.00
26087;BME280;13851;43.434;28.338;2023-02-21T03:21:25;99668.38;;;7.69;100.00
26087;BME280;13851;43.434;28.338;2023-02-21T03:23:56;99314.34;;;5.70;100.00
26087;BME280;13851;43.434;28.338;2023-02-21T03:26:22;99661.22;;;7.76;100.00
26087;BME280;13851;43.434;28.338;2023-02-21T03:28:49;99683.38;;;7.81;100.00
26087;BME280;13851;43.434;28.338;2023-02-21T03:31:16;99636.81;;;7.50;100.00
26087;BME280;13851;43.434;28.338;2023-02-21T03:33:44;99655.78;;;7.68;100.00
26087;BME280;13851;43.434;28.338;2023-02-21T03:36:10;99224.94;;;5.00;100.00
26087;BME280;13851;43.434;28.338;2023-02-21T03:38:36;99617.72;;;7.34;100.00
26087;BME280;13851;43.434;28.338;2023-02-21T03:41:02;99658.66;;;7.74;100.00
26087;BME280;13851;43.434;28.338;2023-02-21T03:43:27;99655.44;;;8.20;100.00
26087;BME280;13851;43.434;28.338;2023-02-21T03:45:53;99512.63;;;7.15;100.00
26087;BME280;13851;43.434;28.338;2023-02-21T03:48:18;99676.25;;;8.45;100.00
26087;BME280;13851;43.434;28.338;2023-02-21T03:50:44;99615.34;;;8.12;100.00
26087;BME280;13851;43.434;28.338;2023-02-21T03:53:10;99700.44;;;8.56;100.00
26087;BME280;13851;43.434;28.338;2023-02-21T03:55:36;99666.00;;;8.55;100.00
26087;BME280;13851;43.434;28.338;2023-02-21T03:58:01;99677.34;;;8.83;100.00
26087;BME280;13851;43.434;28.338;2023-02-21T04:00:27;99679.59;;;8.64;100.00
26087;BME280;13851;43.434;28.338;2023-02-21T04:02:55;99442.97;;;7.53;100.00
26087;BME280;13851;43.434;28.338;2023-02-21T04:05:21;99664.38;;;8.77;100.00
26087;BME280;13851;43.434;28.338;2023-02-21T04:07:46;99640.13;;;8.74;100.00
26087;BME280;13851;43.434;28.338;2023-02-21T04:10:13;99417.41;;;7.54;100.00
26087;BME280;13851;43.434;28.338;2023-02-21T04:12:38;99647.31;;;9.15;100.00
26087;BME280;13851;43.434;28.338;2023-02-21T04:15:04;99605.22;;;9.01;100.00
26087;BME280;13851;43.434;28.338;2023-02-21T04:17:33;99643.38;;;8.86;100.00
26087;BME280;13851;43.434;28.338;2023-02-21T04:19:59;99653.88;;;8.50;100.00
26087;BME280;13851;43.434;28.338;2023-02-21T04:22:25;99633.06;;;8.32;100.00
26087;BME280;13851;43.434;28.338;2023-02-21T04:24:50;99579.03;;;8.03;100.00
26087;BME280;13851;43.434;28.338;2023-02-21T04:27:16;99615.19;;;8.05;100.00
26087;BME280;13851;43.434;28.338;2023-02-21T04:29:41;99575.47;;;8.03;100.00
26087;BME280;13851;43.434;28.338;2023-02-21T04:32:09;99633.41;;;8.13;100.00
26087;BME280;13851;43.434;28.338;2023-02-21T04:34:35;99609.69;;;8.38;100.00
26087;BME280;13851;43.434;28.338;2023-02-21T04:37:00;99605.09;;;8.39;100.00
26087;BME280;13851;43.434;28.338;2023-02-21T04:39:26;99619.44;;;8.41;100.00
26087;BME280;13851;43.434;28.338;2023-02-21T04:41:51;99567.41;;;8.42;100.00
26087;BME280;13851;43.434;28.338;2023-02-21T04:44:17;99189.91;;;6.22;100.00
26087;BME280;13851;43.434;28.338;2023-02-21T04:46:43;99587.34;;;8.51;100.00
26087;BME280;13851;43.434;28.338;2023-02-21T04:49:10;99548.59;;;8.47;100.00
26087;BME280;13851;43.434;28.338;2023-02-21T04:51:36;99571.28;;;8.48;100.00
26087;BME280;13851;43.434;28.338;2023-02-21T04:54:02;99558.84;;;8.29;100.00
26087;BME280;13851;43.434;28.338;2023-02-21T04:56:27;99564.91;;;8.64;100.00
26087;BME280;13851;43.434;28.338;2023-02-21T04:58:54;99542.16;;;8.32;100.00
26087;BME280;13851;43.434;28.338;2023-02-21T05:01:20;99585.91;;;8.63;100.00
26087;BME280;13851;43.434;28.338;2023-02-21T05:03:46;99557.25;;;8.59;100.00
26087;BME280;13851;43.434;28.338;2023-02-21T05:06:20;99510.72;;;8.44;100.00
26087;BME280;13851;43.434;28.338;2023-02-21T05:08:45;99560.56;;;8.85;100.00
26087;BME280;13851;43.434;28.338;2023-02-21T05:11:11;99577.13;;;9.15;100.00
26087;BME280;13851;43.434;28.338;2023-02-21T05:13:37;99568.72;;;9.48;100.00
26087;BME280;13851;43.434;28.338;2023-02-21T05:16:03;99529.75;;;9.46;100.00
26087;BME280;13851;43.434;28.338;2023-02-21T05:18:28;99520.25;;;9.56;100.00
26087;BME280;13851;43.434;28.338;2023-02-21T05:20:54;99297.63;;;8.23;100.00
26087;BME280;13851;43.434;28.338;2023-02-21T05:23:20;99508.63;;;9.62;100.00
26087;BME280;13851;43.434;28.338;2023-02-21T05:26:01;99555.97;;;10.15;100.00
26087;BME280;13851;43.434;28.338;2023-02-21T05:28:28;99537.72;;;10.08;100.00
26087;BME280;13851;43.434;28.338;2023-02-21T05:30:54;99586.16;;;10.22;100.00
26087;BME280;13851;43.434;28.338;2023-02-21T05:33:20;99591.34;;;10.17;100.00
26087;BME280;13851;43.434;28.338;2023-02-21T05:35:45;99511.66;;;9.82;100.00
26087;BME280;13851;43.434;28.338;2023-02-21T05:38:13;99539.81;;;10.06;100.00
26087;BME280;13851;43.434;28.338;2023-02-21T05:40:40;99618.13;;;10.07;100.00
26087;BME280;13851;43.434;28.338;2023-02-21T05:43:06;99525.31;;;9.45;100.00
26087;BME280;13851;43.434;28.338;2023-02-21T05:45:31;99578.28;;;9.67;100.00
26087;BME280;13851;43.434;28.338;2023-02-21T05:47:57;99622.28;;;9.57;100.00
26087;BME280;13851;43.434;28.338;2023-02-21T05:50:25;99624.94;;;9.73;100.00
26087;BME280;13851;43.434;28.338;2023-02-21T05:52:51;99592.97;;;9.74;100.00
26087;BME280;13851;43.434;28.338;2023-02-21T05:55:17;99571.56;;;9.54;100.00
26087;BME280;13851;43.434;28.338;2023-02-21T05:57:43;99627.72;;;9.88;100.00
26087;BME280;13851;43.434;28.338;2023-02-21T06:00:21;99573.97;;;9.72;100.00
26087;BME280;13851;43.434;28.338;2023-02-21T06:02:49;99609.63;;;10.02;100.00
26087;BME280;13851;43.434;28.338;2023-02-21T06:05:15;99400.44;;;8.84;100.00
26087;BME280;13851;43.434;28.338;2023-02-21T06:07:41;99643.19;;;10.19;100.00
26087;BME280;13851;43.434;28.338;2023-02-21T06:10:07;99621.44;;;10.25;100.00
26087;BME280;13851;43.434;28.338;2023-02-21T06:12:32;99582.41;;;10.08;100.00
26087;BME280;13851;43.434;28.338;2023-02-21T06:14:58;99644.00;;;10.42;100.00
26087;BME280;13851;43.434;28.338;2023-02-21T06:17:24;99528.44;;;9.79;100.00
26087;BME280;13851;43.434;28.338;2023-02-21T06:19:49;99605.88;;;10.40;100.00
26087;BME280;13851;43.434;28.338;2023-02-21T06:22:16;99656.97;;;10.63;100.00
26087;BME280;13851;43.434;28.338;2023-02-21T06:24:42;99587.09;;;10.67;100.00
26087;BME280;13851;43.434;28.338;2023-02-21T06:27:07;99605.41;;;10.81;100.00
26087;BME280;13851;43.434;28.338;2023-02-21T06:29:33;99637.44;;;10.96;100.00
26087;BME280;13851;43.434;28.338;2023-02-21T06:31:59;99622.84;;;11.10;100.00
26087;BME280;13851;43.434;28.338;2023-02-21T06:34:25;99608.81;;;11.34;100.00
26087;BME280;13851;43.434;28.338;2023-02-21T06:36:52;99606.31;;;11.18;100.00
26087;BME280;13851;43.434;28.338;2023-02-21T06:39:21;99585.69;;;11.22;100.00
26087;BME280;13851;43.434;28.338;2023-02-21T06:41:49;99613.41;;;11.49;100.00
26087;BME280;13851;43.434;28.338;2023-02-21T06:44:15;99609.31;;;11.59;100.00
26087;BME280;13851;43.434;28.338;2023-02-21T06:46:41;99595.00;;;11.64;100.00
26087;BME280;13851;43.434;28.338;2023-02-21T06:49:08;99330.63;;;10.08;100.00
26087;BME280;13851;43.434;28.338;2023-02-21T06:51:35;99612.75;;;11.83;100.00
26087;BME280;13851;43.434;28.338;2023-02-21T06:54:01;99614.28;;;11.92;100.00
26087;BME280;13851;43.434;28.338;2023-02-21T06:56:27;99664.16;;;11.95;100.00
26087;BME280;13851;43.434;28.338;2023-02-21T06:58:53;99590.34;;;12.07;100.00
26087;BME280;13851;43.434;28.338;2023-02-21T07:01:19;99332.19;;;10.54;100.00
26087;BME280;13851;43.434;28.338;2023-02-21T07:03:45;99537.50;;;11.99;100.00
26087;BME280;13851;43.434;28.338;2023-02-21T07:06:12;99539.19;;;12.00;100.00
26087;BME280;13851;43.434;28.338;2023-02-21T07:08:38;99307.31;;;10.70;100.00
26087;BME280;13851;43.434;28.338;2023-02-21T07:11:04;99251.88;;;10.47;100.00
26087;BME280;13851;43.434;28.338;2023-02-21T07:13:30;99593.66;;;12.52;100.00
26087;BME280;13851;43.434;28.338;2023-02-21T07:15:56;99619.56;;;12.71;100.00
26087;BME280;13851;43.434;28.338;2023-02-21T07:18:22;99587.50;;;12.85;100.00
26087;BME280;13851;43.434;28.338;2023-02-21T07:20:47;99617.31;;;12.81;100.00
26087;BME280;13851;43.434;28.338;2023-02-21T07:23:14;99580.34;;;12.90;100.00
26087;BME280;13851;43.434;28.338;2023-02-21T07:25:39;99245.25;;;11.18;100.00
26087;BME280;13851;43.434;28.338;2023-02-21T07:28:05;99571.53;;;13.08;100.00
26087;BME280;13851;43.434;28.338;2023-02-21T07:30:30;99612.72;;;13.36;100.00
26087;BME280;13851;43.434;28.338;2023-02-21T07:32:56;99552.16;;;13.30;100.00
26087;BME280;13851;43.434;28.338;2023-02-21T07:35:22;99525.28;;;13.25;100.00
26087;BME280;13851;43.434;28.338;2023-02-21T07:37:48;99580.13;;;13.40;100.00
26087;BME280;13851;43.434;28.338;2023-02-21T07:40:13;99560.06;;;13.66;100.00
26087;BME280;13851;43.434;28.338;2023-02-21T07:42:42;99532.72;;;13.51;100.00
26087;BME280;13851;43.434;28.338;2023-02-21T07:45:09;99307.25;;;12.43;100.00
26087;BME280;13851;43.434;28.338;2023-02-21T07:47:34;99600.78;;;13.84;99.85
26087;BME280;13851;43.434;28.338;2023-02-21T07:50:00;99556.06;;;14.01;100.00
26087;BME280;13851;43.434;28.338;2023-02-21T07:52:25;99227.16;;;12.13;98.39
26087;BME280;13851;43.434;28.338;2023-02-21T07:54:51;99543.16;;;14.09;97.98
26087;BME280;13851;43.434;28.338;2023-02-21T07:57:17;99253.81;;;12.53;95.98
26087;BME280;13851;43.434;28.338;2023-02-21T07:59:43;99263.97;;;12.52;94.98
26087;BME280;13851;43.434;28.338;2023-02-21T08:02:12;99524.91;;;14.34;94.48
26087;BME280;13851;43.434;28.338;2023-02-21T08:04:39;99546.75;;;14.29;94.24
26087;BME280;13851;43.434;28.338;2023-02-21T08:07:05;99520.25;;;14.21;94.35
26087;BME280;13851;43.434;28.338;2023-02-21T08:09:31;99573.44;;;14.48;94.53
26087;BME280;13851;43.434;28.338;2023-02-21T08:11:57;99507.31;;;14.35;92.13
26087;BME280;13851;43.434;28.338;2023-02-21T08:14:23;99587.84;;;14.70;90.96
26087;BME280;13851;43.434;28.338;2023-02-21T08:16:49;99505.19;;;14.17;91.39
26087;BME280;13851;43.434;28.338;2023-02-21T08:19:14;99252.56;;;12.88;92.32
26087;BME280;13851;43.434;28.338;2023-02-21T08:21:46;99536.94;;;14.66;90.61
26087;BME280;13851;43.434;28.338;2023-02-21T08:24:12;99523.13;;;14.73;90.10
26087;BME280;13851;43.434;28.338;2023-02-21T08:26:37;99532.25;;;14.80;89.46
26087;BME280;13851;43.434;28.338;2023-02-21T08:29:05;99474.59;;;14.65;89.13
26087;BME280;13851;43.434;28.338;2023-02-21T08:31:34;99523.25;;;14.98;87.79
26087;BME280;13851;43.434;28.338;2023-02-21T08:34:01;99529.72;;;15.17;87.93
26087;BME280;13851;43.434;28.338;2023-02-21T08:36:34;99535.84;;;15.25;86.17
26087;BME280;13851;43.434;28.338;2023-02-21T08:39:00;99208.94;;;13.38;84.77
26087;BME280;13851;43.434;28.338;2023-02-21T08:41:37;99257.38;;;13.52;84.55
26087;BME280;13851;43.434;28.338;2023-02-21T08:44:08;99530.16;;;15.14;84.70
26087;BME280;13851;43.434;28.338;2023-02-21T08:46:34;99337.88;;;13.99;83.77
26087;BME280;13851;43.434;28.338;2023-02-21T08:49:00;99514.28;;;15.47;83.26
26087;BME280;13851;43.434;28.338;2023-02-21T08:51:28;99511.78;;;15.71;80.85
26087;BME280;13851;43.434;28.338;2023-02-21T08:53:54;99494.41;;;15.32;80.76
26087;BME280;13851;43.434;28.338;2023-02-21T08:56:21;99514.63;;;15.89;79.68
26087;BME280;13851;43.434;28.338;2023-02-21T08:58:47;99545.84;;;16.15;78.74
26087;BME280;13851;43.434;28.338;2023-02-21T09:01:13;99523.56;;;16.34;77.79
26087;BME280;13851;43.434;28.338;2023-02-21T09:03:39;99511.19;;;16.37;74.84
26087;BME280;13851;43.434;28.338;2023-02-21T09:06:05;99519.47;;;16.37;73.92
26087;BME280;13851;43.434;28.338;2023-02-21T09:08:30;99207.22;;;14.59;73.63
26087;BME280;13851;43.434;28.338;2023-02-21T09:10:56;99535.03;;;16.56;74.25
26087;BME280;13851;43.434;28.338;2023-02-21T09:13:29;99166.41;;;14.42;71.75
26087;BME280;13851;43.434;28.338;2023-02-21T09:15:57;99246.41;;;14.92;72.24
26087;BME280;13851;43.434;28.338;2023-02-21T09:18:23;99495.88;;;16.78;70.34
26087;BME280;13851;43.434;28.338;2023-02-21T09:20:49;99251.25;;;15.22;71.09
26087;BME280;13851;43.434;28.338;2023-02-21T09:23:20;99480.84;;;16.74;69.70
26087;BME280;13851;43.434;28.338;2023-02-21T09:25:47;99489.59;;;16.89;68.45
26087;BME280;13851;43.434;28.338;2023-02-21T09:28:14;99403.03;;;16.33;69.96
26087;BME280;13851;43.434;28.338;2023-02-21T09:30:39;99440.84;;;16.70;68.13
26087;BME280;13851;43.434;28.338;2023-02-21T09:33:05;99478.47;;;16.52;68.22
26087;BME280;13851;43.434;28.338;2023-02-21T09:35:31;99491.72;;;16.69;68.72
26087;BME280;13851;43.434;28.338;2023-02-21T09:37:57;99159.75;;;14.81;68.77
26087;BME280;13851;43.434;28.338;2023-02-21T09:43:00;99495.41;;;16.81;68.67
26087;BME280;13851;43.434;28.338;2023-02-21T09:45:30;99425.09;;;16.52;69.23
26087;BME280;13851;43.434;28.338;2023-02-21T09:48:00;99476.00;;;16.99;68.19
26087;BME280;13851;43.434;28.338;2023-02-21T09:50:28;99474.81;;;16.95;67.63
26087;BME280;13851;43.434;28.338;2023-02-21T09:52:57;99481.47;;;17.06;67.87
26087;BME280;13851;43.434;28.338;2023-02-21T09:55:30;99504.78;;;16.98;68.42
26087;BME280;13851;43.434;28.338;2023-02-21T09:57:58;99191.31;;;15.11;67.89
26087;BME280;13851;43.434;28.338;2023-02-21T10:00:32;99210.28;;;15.19;69.41
26087;BME280;13851;43.434;28.338;2023-02-21T10:06:30;99434.84;;;16.91;65.06
26087;BME280;13851;43.434;28.338;2023-02-21T10:09:07;99435.69;;;16.92;63.79
26087;BME280;13851;43.434;28.338;2023-02-21T10:12:07;99422.84;;;16.97;63.30
26087;BME280;13851;43.434;28.338;2023-02-21T10:17:34;99356.38;;;16.74;63.54
26087;BME280;13851;43.434;28.338;2023-02-21T10:20:10;99430.84;;;17.17;63.98
26087;BME280;13851;43.434;28.338;2023-02-21T10:22:39;99427.97;;;17.24;64.52
26087;BME280;13851;43.434;28.338;2023-02-21T10:25:24;99428.75;;;17.31;63.35
26087;BME280;13851;43.434;28.338;2023-02-21T10:27:52;99410.22;;;17.43;63.17
26087;BME280;13851;43.434;28.338;2023-02-21T10:30:34;99188.66;;;16.07;62.54
26087;BME280;13851;43.434;28.338;2023-02-21T10:33:01;99393.53;;;17.20;61.65
26087;BME280;13851;43.434;28.338;2023-02-21T10:35:31;99037.06;;;15.39;60.48
26087;BME280;13851;43.434;28.338;2023-02-21T10:37:58;99371.44;;;17.43;60.41
26087;BME280;13851;43.434;28.338;2023-02-21T10:43:15;99216.91;;;16.63;60.89
26087;BME280;13851;43.434;28.338;2023-02-21T10:48:37;99357.34;;;17.45;61.49
26087;BME280;13851;43.434;28.338;2023-02-21T10:53:40;99385.59;;;17.88;60.51
26087;BME280;13851;43.434;28.338;2023-02-21T10:58:56;99376.97;;;18.37;59.67
26087;BME280;13851;43.434;28.338;2023-02-21T11:04:30;99376.06;;;18.60;58.41
26087;BME280;13851;43.434;28.338;2023-02-21T11:15:02;99312.97;;;18.27;58.12
26087;BME280;13851;43.434;28.338;2023-02-21T11:17:30;99303.47;;;18.23;58.21
26087;BME280;13851;43.434;28.338;2023-02-21T11:20:18;99355.94;;;18.53;55.84
26087;BME280;13851;43.434;28.338;2023-02-21T11:22:48;99334.09;;;18.28;54.36
26087;BME280;13851;43.434;28.338;2023-02-21T11:25:31;99246.47;;;17.75;54.94
26087;BME280;13851;43.434;28.338;2023-02-21T11:28:20;99342.09;;;18.12;54.81
26087;BME280;13851;43.434;28.338;2023-02-21T11:31:07;99338.09;;;18.08;54.66
26087;BME280;13851;43.434;28.338;2023-02-21T11:33:39;99259.84;;;17.66;55.05
26087;BME280;13851;43.434;28.338;2023-02-21T11:36:14;99262.25;;;17.62;56.36
26087;BME280;13851;43.434;28.338;2023-02-21T11:38:45;99342.19;;;18.17;56.71
26087;BME280;13851;43.434;28.338;2023-02-21T11:41:46;99346.28;;;18.15;56.53
26087;BME280;13851;43.434;28.338;2023-02-21T11:44:41;99340.81;;;18.32;55.60
26087;BME280;13851;43.434;28.338;2023-02-21T11:47:20;99362.63;;;18.40;54.78
26087;BME280;13851;43.434;28.338;2023-02-21T11:55:26;99324.38;;;18.42;53.60
26087;BME280;13851;43.434;28.338;2023-02-21T12:01:18;99274.06;;;18.22;52.33
26087;BME280;13851;43.434;28.338;2023-02-21T12:09:18;99054.50;;;16.70;48.51
26087;BME280;13851;43.434;28.338;2023-02-21T12:15:20;98974.91;;;16.60;47.62
26087;BME280;13851;43.434;28.338;2023-02-21T12:45:47;99151.75;;;19.19;40.33
26087;BME280;13851;43.434;28.338;2023-02-21T12:48:25;99261.88;;;19.47;39.36
26087;BME280;13851;43.434;28.338;2023-02-21T12:50:57;99229.38;;;19.47;38.93
26087;BME280;13851;43.434;28.338;2023-02-21T12:53:30;99228.28;;;19.48;38.82
26087;BME280;13851;43.434;28.338;2023-02-21T12:56:32;99249.47;;;19.71;38.80
26087;BME280;13851;43.434;28.338;2023-02-21T12:59:07;99243.66;;;19.73;38.71
26087;BME280;13851;43.434;28.338;2023-02-21T13:01:39;99261.75;;;19.76;38.52
26087;BME280;13851;43.434;28.338;2023-02-21T13:04:33;99235.72;;;19.82;37.29
26087;BME280;13851;43.434;28.338;2023-02-21T13:12:46;99239.47;;;20.14;35.80
26087;BME280;13851;43.434;28.338;2023-02-21T13:17:55;99159.91;;;20.13;36.50
26087;BME280;13851;43.434;28.338;2023-02-21T13:20:23;99219.50;;;20.71;36.32
26087;BME280;13851;43.434;28.338;2023-02-21T13:28:51;98911.13;;;19.03;35.24
26087;BME280;13851;43.434;28.338;2023-02-21T13:31:28;99171.03;;;20.67;34.80
26087;BME280;13851;43.434;28.338;2023-02-21T13:34:05;98892.97;;;18.68;35.06
26087;BME280;13851;43.434;28.338;2023-02-21T13:36:38;99187.06;;;20.55;35.26
26087;BME280;13851;43.434;28.338;2023-02-21T13:41:35;99141.28;;;20.14;35.03
26087;BME280;13851;43.434;28.338;2023-02-21T13:44:07;99164.06;;;20.38;34.96
26087;BME280;13851;43.434;28.338;2023-02-21T13:57:34;99161.00;;;21.41;34.32
26087;BME280;13851;43.434;28.338;2023-02-21T14:02:59;99141.91;;;21.22;32.84
26087;BME280;13851;43.434;28.338;2023-02-21T14:05:26;99212.97;;;21.62;32.93
26087;BME280;13851;43.434;28.338;2023-02-21T14:08:25;98953.19;;;20.35;32.54
26087;BME280;13851;43.434;28.338;2023-02-21T14:21:09;98854.59;;;20.15;32.36
26087;BME280;13851;43.434;28.338;2023-02-21T14:24:12;99175.91;;;22.40;32.30
26087;BME280;13851;43.434;28.338;2023-02-21T14:37:37;99150.00;;;21.66;33.28
26087;BME280;13851;43.434;28.338;2023-02-21T14:45:56;99080.47;;;21.39;34.27
26087;BME280;13851;43.434;28.338;2023-02-21T14:51:50;99106.75;;;21.11;35.25
26087;BME280;13851;43.434;28.338;2023-02-21T15:00:37;99086.09;;;21.02;35.68
26087;BME280;13851;43.434;28.338;2023-02-21T15:03:28;99060.53;;;20.63;36.00
26087;BME280;13851;43.434;28.338;2023-02-21T15:06:05;98800.75;;;18.61;36.78
26087;BME280;13851;43.434;28.338;2023-02-21T15:08:41;99078.97;;;20.10;37.44
26087;BME280;13851;43.434;28.338;2023-02-21T15:13:42;99055.69;;;19.62;38.45
26087;BME280;13851;43.434;28.338;2023-02-21T15:16:09;99129.34;;;20.13;38.50
26087;BME280;13851;43.434;28.338;2023-02-21T15:18:41;98975.88;;;19.08;38.57
26087;BME280;13851;43.434;28.338;2023-02-21T15:21:20;99151.34;;;19.93;38.86
26087;BME280;13851;43.434;28.338;2023-02-21T15:23:48;99185.78;;;20.41;38.50
26087;BME280;13851;43.434;28.338;2023-02-21T15:26:25;98950.00;;;18.81;38.79
26087;BME280;13851;43.434;28.338;2023-02-21T15:29:05;99210.13;;;20.02;39.06
26087;BME280;13851;43.434;28.338;2023-02-21T15:31:35;99180.50;;;19.68;39.53
26087;BME280;13851;43.434;28.338;2023-02-21T15:34:02;99165.41;;;19.20;40.24
26087;BME280;13851;43.434;28.338;2023-02-21T15:36:29;99168.44;;;19.02;40.41
26087;BME280;13851;43.434;28.338;2023-02-21T15:39:04;99066.31;;;18.15;42.43
26087;BME280;13851;43.434;28.338;2023-02-21T15:44:19;99207.03;;;18.25;43.43
26087;BME280;13851;43.434;28.338;2023-02-21T15:46:50;99221.22;;;18.00;44.28
26087;BME280;13851;43.434;28.338;2023-02-21T15:49:24;99205.88;;;17.80;45.11
26087;BME280;13851;43.434;28.338;2023-02-21T15:51:51;99181.19;;;17.55;45.95
26087;BME280;13851;43.434;28.338;2023-02-21T15:56:43;99152.28;;;17.11;47.08
26087;BME280;13851;43.434;28.338;2023-02-21T15:59:19;99201.97;;;17.41;47.57
26087;BME280;13851;43.434;28.338;2023-02-21T16:04:41;99199.06;;;17.24;47.89
26087;BME280;13851;43.434;28.338;2023-02-21T16:07:20;99189.09;;;17.23;47.82
26087;BME280;13851;43.434;28.338;2023-02-21T16:09:49;99206.16;;;17.08;48.70
26087;BME280;13851;43.434;28.338;2023-02-21T16:12:40;99220.59;;;16.87;48.98
26087;BME280;13851;43.434;28.338;2023-02-21T16:15:27;99188.75;;;16.84;49.67
26087;BME280;13851;43.434;28.338;2023-02-21T16:18:02;99201.72;;;16.84;50.10
26087;BME280;13851;43.434;28.338;2023-02-21T16:20:40;99220.25;;;16.95;50.66